createdAt,value
2018-06-12T00:00:22.532Z,20.20
2018-06-12T00:02:50.567Z,20.10
2018-06-12T00:05:18.572Z,20.00
2018-06-12T00:07:46.575Z,19.90
2018-06-12T00:10:14.571Z,19.90
2018-06-12T00:12:42.641Z,19.90
2018-06-12T00:15:10.715Z,19.90
2018-06-12T00:17:38.794Z,19.90
2018-06-12T00:20:06.779Z,19.80
2018-06-12T00:22:34.881Z,19.70
2018-06-12T00:25:02.895Z,19.70
2018-06-12T00:27:30.962Z,19.70
2018-06-12T00:29:58.993Z,19.70
2018-06-12T00:32:27.000Z,19.70
2018-06-12T00:34:54.990Z,19.60
2018-06-12T00:37:23.042Z,19.60
2018-06-12T00:39:51.031Z,19.60
2018-06-12T00:42:18.998Z,19.60
2018-06-12T00:44:47.047Z,19.60
2018-06-12T00:47:15.027Z,19.50
2018-06-12T00:49:43.019Z,19.50
2018-06-12T00:52:11.071Z,19.40
2018-06-12T00:54:39.072Z,19.20
2018-06-12T00:57:08.225Z,19.20
2018-06-12T00:59:36.199Z,19.20
2018-06-12T01:02:04.583Z,19.30
2018-06-12T01:04:32.651Z,19.30
2018-06-12T01:07:00.647Z,19.30
2018-06-12T01:11:56.484Z,19.20
2018-06-12T01:14:24.499Z,19.10
2018-06-12T01:16:52.479Z,19.00
2018-06-12T01:19:20.498Z,18.90
2018-06-12T01:21:48.502Z,18.80
2018-06-12T01:24:16.512Z,18.80
2018-06-12T01:26:44.487Z,18.80
2018-06-12T01:29:12.489Z,18.70
2018-06-12T01:31:40.491Z,18.80
2018-06-12T01:34:08.587Z,18.70
2018-06-12T01:39:06.963Z,18.80
2018-06-12T01:41:35.368Z,18.70
2018-06-12T01:44:03.436Z,18.70
2018-06-12T01:46:31.431Z,18.60
2018-06-12T01:48:59.431Z,18.40
2018-06-12T01:51:27.457Z,18.30
2018-06-12T01:53:55.459Z,18.30
2018-06-12T01:56:23.463Z,18.30
2018-06-12T01:58:51.490Z,18.20
2018-06-12T02:01:19.495Z,18.20
2018-06-12T02:03:47.487Z,18.10
2018-06-12T02:06:15.486Z,18.10
2018-06-12T02:08:43.483Z,18.10
2018-06-12T02:11:11.470Z,18.00
2018-06-12T02:13:39.459Z,18.00
2018-06-12T02:16:07.459Z,18.00
2018-06-12T02:18:35.459Z,18.00
2018-06-12T02:21:03.462Z,17.90
2018-06-12T02:23:31.455Z,17.70
2018-06-12T02:25:59.444Z,17.80
2018-06-12T02:28:27.435Z,17.80
2018-06-12T02:30:55.428Z,17.70
2018-06-12T02:33:23.448Z,17.70
2018-06-12T02:35:51.422Z,17.70
2018-06-12T02:38:19.420Z,17.70
2018-06-12T02:40:47.402Z,17.70
2018-06-12T02:43:15.471Z,17.70
2018-06-12T02:45:43.548Z,17.70
2018-06-12T02:48:11.619Z,17.60
2018-06-12T02:50:39.624Z,17.60
2018-06-12T02:53:07.656Z,17.50
2018-06-12T02:55:35.627Z,17.50
2018-06-12T02:58:03.635Z,17.50
2018-06-12T03:00:31.644Z,17.40
2018-06-12T03:02:59.689Z,17.30
2018-06-12T03:05:27.724Z,17.40
2018-06-12T03:07:55.690Z,17.30
2018-06-12T03:10:23.684Z,17.30
2018-06-12T03:12:51.767Z,17.20
2018-06-12T03:15:19.763Z,17.10
2018-06-12T03:17:47.746Z,17.00
2018-06-12T03:20:15.715Z,17.00
2018-06-12T03:22:43.691Z,17.00
2018-06-12T03:25:11.750Z,17.10
2018-06-12T03:27:39.731Z,17.10
2018-06-12T03:30:07.802Z,17.10
2018-06-12T03:35:03.659Z,17.00
2018-06-12T03:37:31.630Z,17.10
2018-06-12T03:39:59.629Z,17.10
2018-06-12T03:42:27.646Z,17.10
2018-06-12T03:44:55.659Z,16.90
2018-06-12T03:47:23.651Z,16.90
2018-06-12T03:49:51.666Z,16.90
2018-06-12T03:52:23.878Z,17.00
2018-06-12T03:54:51.990Z,17.00
2018-06-12T03:57:19.998Z,16.80
2018-06-12T03:59:48.020Z,16.70
2018-06-12T04:02:16.026Z,16.70
2018-06-12T04:04:44.011Z,16.70
2018-06-12T04:07:12.003Z,16.60
2018-06-12T04:09:39.996Z,16.70
2018-06-12T04:12:08.012Z,16.70
2018-06-12T04:14:35.992Z,16.70
2018-06-12T04:17:04.082Z,16.70
2018-06-12T04:19:32.059Z,16.60
2018-06-12T04:22:00.042Z,16.50
2018-06-12T04:24:28.047Z,16.50
2018-06-12T04:26:56.083Z,16.50
2018-06-12T04:29:24.079Z,16.50
2018-06-12T04:31:52.071Z,16.50
2018-06-12T04:34:20.055Z,16.40
2018-06-12T04:36:48.100Z,16.50
2018-06-12T04:39:16.217Z,16.40
2018-06-12T04:41:44.215Z,16.30
2018-06-12T04:44:12.211Z,16.20
2018-06-12T04:46:40.206Z,16.30
2018-06-12T04:49:08.195Z,16.40
2018-06-12T04:51:36.235Z,16.30
2018-06-12T04:54:04.235Z,16.30
2018-06-12T04:56:32.219Z,16.30
2018-06-12T04:59:00.293Z,16.40
2018-06-12T05:01:28.351Z,16.50
2018-06-12T05:03:56.343Z,16.60
2018-06-12T05:08:52.283Z,16.20
2018-06-12T05:11:20.295Z,16.20
2018-06-12T05:13:49.482Z,16.20
2018-06-12T05:16:17.564Z,16.20
2018-06-12T05:18:45.790Z,16.30
2018-06-12T05:21:13.793Z,16.30
2018-06-12T05:23:41.799Z,16.30
2018-06-12T05:26:09.864Z,16.50
2018-06-12T05:28:37.876Z,16.60
2018-06-12T05:31:05.946Z,16.70
2018-06-12T05:33:33.926Z,16.60
2018-06-12T05:36:02.561Z,16.70
2018-06-12T05:38:30.552Z,16.60
2018-06-12T05:40:58.548Z,16.40
2018-06-12T05:43:26.532Z,16.40
2018-06-12T05:45:54.532Z,16.30
2018-06-12T05:48:22.546Z,16.40
2018-06-12T05:50:50.523Z,16.40
2018-06-12T05:53:18.519Z,16.50
2018-06-12T05:58:21.045Z,16.80
2018-06-12T06:00:49.071Z,16.80
2018-06-12T06:03:17.060Z,16.90
2018-06-12T06:05:45.054Z,17.00
2018-06-12T06:08:13.134Z,17.10
2018-06-12T06:10:41.202Z,17.00
2018-06-12T06:13:09.159Z,16.80
2018-06-12T06:15:37.183Z,16.80
2018-06-12T06:18:05.222Z,16.90
2018-06-12T06:20:33.287Z,16.90
2018-06-12T06:23:01.318Z,17.00
2018-06-12T06:25:29.331Z,17.20
2018-06-12T06:27:57.312Z,17.30
2018-06-12T06:32:53.115Z,17.00
2018-06-12T06:35:21.199Z,16.90
2018-06-12T06:37:49.190Z,17.10
2018-06-12T06:40:17.191Z,17.10
2018-06-12T06:42:45.230Z,17.00
2018-06-12T06:45:13.211Z,17.00
2018-06-12T06:47:41.192Z,17.00
2018-06-12T06:50:10.957Z,17.10
2018-06-12T06:52:38.946Z,17.20
2018-06-12T06:55:06.951Z,17.40
2018-06-12T06:57:34.938Z,17.40
2018-06-12T07:00:02.957Z,17.30
2018-06-12T07:02:30.946Z,17.20
2018-06-12T07:04:59.022Z,17.30
2018-06-12T07:07:27.012Z,17.20
2018-06-12T07:09:55.015Z,17.20
2018-06-12T07:12:23.015Z,17.30
2018-06-12T07:14:51.103Z,17.30
2018-06-12T07:19:46.914Z,17.20
2018-06-12T07:22:14.945Z,17.30
2018-06-12T07:24:43.051Z,17.40
2018-06-12T07:29:38.838Z,17.60
2018-06-12T07:32:06.828Z,18.00
2018-06-12T07:34:34.830Z,18.20
2018-06-12T07:37:02.835Z,18.20
2018-06-12T07:39:30.830Z,18.30
2018-06-12T07:41:58.903Z,18.30
2018-06-12T07:44:26.886Z,18.20
2018-06-12T07:46:54.862Z,18.00
2018-06-12T07:49:22.875Z,17.80
2018-06-12T07:51:50.994Z,17.50
2018-06-12T07:54:18.990Z,17.20
2018-06-12T07:56:47.018Z,17.20
2018-06-12T07:59:14.994Z,17.30
2018-06-12T08:01:42.974Z,17.50
2018-06-12T08:04:10.950Z,17.60
2018-06-12T08:06:38.948Z,17.70
2018-06-12T08:09:07.499Z,17.80
2018-06-12T08:11:35.662Z,17.90
2018-06-12T08:14:03.658Z,18.00
2018-06-12T08:16:31.688Z,18.20
2018-06-12T08:18:59.662Z,18.60
2018-06-12T08:21:27.671Z,18.60
2018-06-12T08:23:55.760Z,18.40
2018-06-12T08:26:23.730Z,18.20
2018-06-12T08:28:51.720Z,18.10
2018-06-12T08:31:19.702Z,18.30
2018-06-12T08:33:47.731Z,18.40
2018-06-12T08:36:15.723Z,18.30
2018-06-12T08:38:43.704Z,18.40
2018-06-12T08:41:11.708Z,18.40
2018-06-12T08:43:39.691Z,18.50
2018-06-12T08:46:07.675Z,18.60
2018-06-12T08:48:35.655Z,18.50
2018-06-12T08:51:03.787Z,18.30
2018-06-12T08:55:59.691Z,18.10
2018-06-12T08:58:27.765Z,18.10
2018-06-12T09:00:55.841Z,18.10
2018-06-12T09:03:23.905Z,18.20
2018-06-12T09:05:51.986Z,18.20
2018-06-12T09:08:19.978Z,18.10
2018-06-12T09:10:48.018Z,18.30
2018-06-12T09:13:16.191Z,18.60
2018-06-12T09:15:44.203Z,18.80
2018-06-12T09:18:12.188Z,18.70
2018-06-12T09:20:40.167Z,18.60
2018-06-12T09:23:08.198Z,18.50
2018-06-12T09:25:36.167Z,18.50
2018-06-12T09:28:04.163Z,18.50
2018-06-12T09:30:32.172Z,18.50
2018-06-12T09:33:00.145Z,18.50
2018-06-12T09:35:28.143Z,18.40
2018-06-12T09:37:56.151Z,18.20
2018-06-12T09:40:24.129Z,18.10
2018-06-12T09:42:52.107Z,18.70
2018-06-12T09:45:20.139Z,19.00
2018-06-12T09:47:48.127Z,19.10
2018-06-12T09:50:16.096Z,19.10
2018-06-12T09:52:44.093Z,19.30
2018-06-12T09:55:12.109Z,19.20
2018-06-12T09:57:40.158Z,19.40
2018-06-12T10:00:08.147Z,19.40
2018-06-12T10:02:36.128Z,19.50
2018-06-12T10:05:04.355Z,19.70
2018-06-12T10:07:32.338Z,19.80
2018-06-12T10:10:00.351Z,19.70
2018-06-12T10:12:28.366Z,19.60
2018-06-12T10:14:56.339Z,19.90
2018-06-12T10:17:24.318Z,19.90
2018-06-12T10:19:52.302Z,20.00
2018-06-12T10:22:20.333Z,20.20
2018-06-12T10:24:48.317Z,20.20
2018-06-12T10:27:16.303Z,20.40
2018-06-12T10:29:44.298Z,20.60
2018-06-12T10:32:12.326Z,20.70
2018-06-12T10:34:40.337Z,20.80
2018-06-12T10:37:08.413Z,20.90
2018-06-12T10:39:36.318Z,21.10
2018-06-12T10:42:04.342Z,21.30
2018-06-12T10:44:32.324Z,21.20
2018-06-12T10:47:00.325Z,21.30
2018-06-12T10:49:28.452Z,21.20
2018-06-12T10:51:56.562Z,21.40
2018-06-12T10:54:24.594Z,21.60
2018-06-12T10:56:52.566Z,21.60
2018-06-12T10:59:20.555Z,21.90
2018-06-12T11:01:48.561Z,22.00
2018-06-12T11:04:16.538Z,22.00
2018-06-12T11:06:44.539Z,22.20
2018-06-12T11:09:12.551Z,22.20
2018-06-12T11:11:40.519Z,21.60
2018-06-12T11:14:08.530Z,21.30
2018-06-12T11:16:36.530Z,21.00
2018-06-12T11:19:04.523Z,20.70
2018-06-12T11:21:32.549Z,21.00
2018-06-12T11:24:00.515Z,21.20
2018-06-12T11:26:28.556Z,21.30
2018-06-12T11:28:56.559Z,21.50
2018-06-12T11:31:24.551Z,22.10
2018-06-12T11:33:52.529Z,22.60
2018-06-12T11:36:20.535Z,22.70
2018-06-12T11:38:48.531Z,22.70
2018-06-12T11:41:16.532Z,22.60
2018-06-12T11:43:44.514Z,22.00
2018-06-12T11:46:12.526Z,21.60
2018-06-12T11:48:40.496Z,21.40
2018-06-12T11:53:36.397Z,21.00
2018-06-12T11:56:04.460Z,21.00
2018-06-12T11:58:32.492Z,21.20
2018-06-12T12:01:00.663Z,21.70
2018-06-12T12:03:28.651Z,21.60
2018-06-12T12:05:56.752Z,21.50
2018-06-12T12:08:24.742Z,21.70
2018-06-12T12:10:52.791Z,21.60
2018-06-12T12:13:20.859Z,21.70
2018-06-12T12:15:49.715Z,22.00
2018-06-12T12:18:17.718Z,22.00
2018-06-12T12:20:45.712Z,22.10
2018-06-12T12:23:13.730Z,22.50
2018-06-12T12:25:41.735Z,22.70
2018-06-12T12:28:09.790Z,22.80
2018-06-12T12:30:37.865Z,23.00
2018-06-12T12:33:06.159Z,22.90
2018-06-12T12:35:34.204Z,22.90
2018-06-12T12:38:02.198Z,22.90
2018-06-12T12:40:30.210Z,22.70
2018-06-12T12:42:58.195Z,22.70
2018-06-12T12:45:26.187Z,23.00
2018-06-12T12:47:54.208Z,23.50
2018-06-12T12:50:22.202Z,23.20
2018-06-12T12:52:50.183Z,23.00
2018-06-12T12:55:18.179Z,23.10
2018-06-12T12:57:46.164Z,23.30
2018-06-12T13:00:14.212Z,23.50
2018-06-12T13:05:10.172Z,23.00
2018-06-12T13:07:38.218Z,22.90
2018-06-12T13:10:06.283Z,23.00
2018-06-12T13:12:34.356Z,23.20
2018-06-12T13:15:02.401Z,23.30
2018-06-12T13:17:30.418Z,23.30
2018-06-12T13:19:58.460Z,23.40
2018-06-12T13:22:26.459Z,23.70
2018-06-12T13:24:54.500Z,23.60
2018-06-12T13:27:22.483Z,23.30
2018-06-12T13:29:50.469Z,23.00
2018-06-12T13:32:18.446Z,22.90
2018-06-12T13:34:46.472Z,23.00
2018-06-12T13:37:14.552Z,23.40
2018-06-12T13:39:42.730Z,23.80
2018-06-12T13:42:17.557Z,24.30
2018-06-12T13:44:45.637Z,24.60
2018-06-12T13:49:41.563Z,23.80
2018-06-12T13:52:09.559Z,23.50
2018-06-12T13:54:37.624Z,23.20
2018-06-12T13:57:05.872Z,23.40
2018-06-12T13:59:33.866Z,23.90
2018-06-12T14:02:01.915Z,24.00
2018-06-12T14:04:30.756Z,23.80
2018-06-12T14:06:58.762Z,23.70
2018-06-12T14:09:26.754Z,23.90
2018-06-12T14:11:54.741Z,24.10
2018-06-12T14:14:22.719Z,24.00
2018-06-12T14:16:50.702Z,23.50
2018-06-12T14:19:18.694Z,23.40
2018-06-12T14:21:46.821Z,23.40
2018-06-12T14:24:14.811Z,23.50
2018-06-12T14:26:42.837Z,23.70
2018-06-12T14:29:10.898Z,23.60
2018-06-12T14:31:38.955Z,23.60
2018-06-12T14:34:06.961Z,23.80
2018-06-12T14:36:34.954Z,24.00
2018-06-12T14:39:02.983Z,23.90
2018-06-12T14:41:30.957Z,23.70
2018-06-12T14:43:58.962Z,23.80
2018-06-12T14:46:26.955Z,23.70
2018-06-12T14:48:54.935Z,23.60
2018-06-12T14:51:22.916Z,23.90
2018-06-12T14:53:50.910Z,24.00
2018-06-12T14:56:18.907Z,24.40
2018-06-12T14:58:46.889Z,24.80
2018-06-12T15:01:14.862Z,25.00
2018-06-12T15:03:42.930Z,24.80
2018-06-12T15:06:10.935Z,24.50
2018-06-12T15:08:38.961Z,24.30
2018-06-12T15:11:06.969Z,24.20
2018-06-12T15:13:35.000Z,24.30
2018-06-12T15:16:03.021Z,24.50
2018-06-12T15:18:31.087Z,24.90
2018-06-12T15:20:59.142Z,25.40
2018-06-12T15:23:27.155Z,25.50
2018-06-12T15:25:55.134Z,25.00
2018-06-12T15:28:23.200Z,24.80
2018-06-12T15:30:51.235Z,24.80
2018-06-12T15:33:19.396Z,24.50
2018-06-12T15:35:47.356Z,24.00
2018-06-12T15:38:15.351Z,24.10
2018-06-12T15:40:43.331Z,24.30
2018-06-12T15:45:39.245Z,25.10
2018-06-12T15:48:07.214Z,25.30
2018-06-12T15:50:35.309Z,25.30
2018-06-12T15:53:03.287Z,25.30
2018-06-12T15:55:31.270Z,24.80
2018-06-12T15:57:59.250Z,24.50
2018-06-12T16:00:27.269Z,24.80
2018-06-12T16:02:55.267Z,25.20
2018-06-12T16:05:23.420Z,25.60
2018-06-12T16:07:51.571Z,25.60
2018-06-12T16:10:19.652Z,25.50
2018-06-12T16:12:47.635Z,25.30
2018-06-12T16:17:43.463Z,24.80
2018-06-12T16:20:11.514Z,24.60
2018-06-12T16:22:39.529Z,24.10
2018-06-12T16:25:07.679Z,23.70
2018-06-12T16:27:35.650Z,23.30
2018-06-12T16:30:03.631Z,23.10
2018-06-12T16:32:31.618Z,22.90
2018-06-12T16:34:59.598Z,22.90
2018-06-12T16:37:27.590Z,22.70
2018-06-12T16:39:55.576Z,22.70
2018-06-12T16:42:23.562Z,22.80
2018-06-12T16:44:51.547Z,22.90
2018-06-12T16:47:19.527Z,23.20
2018-06-12T16:49:47.520Z,23.50
2018-06-12T16:52:15.510Z,23.60
2018-06-12T16:54:43.594Z,23.80
2018-06-12T16:57:11.618Z,23.80
2018-06-12T16:59:39.594Z,23.70
2018-06-12T17:02:07.925Z,23.40
2018-06-12T17:04:35.978Z,23.10
2018-06-12T17:07:04.124Z,23.00
2018-06-12T17:09:32.286Z,22.90
2018-06-12T17:12:00.457Z,22.70
2018-06-12T17:14:29.653Z,22.60
2018-06-12T17:16:57.642Z,22.50
2018-06-12T17:19:25.698Z,22.40
2018-06-12T17:21:53.788Z,22.30
2018-06-12T17:24:21.881Z,22.00
2018-06-12T17:26:50.051Z,21.90
2018-06-12T17:29:18.036Z,21.80
2018-06-12T17:31:46.060Z,21.90
2018-06-12T17:34:14.130Z,22.00
2018-06-12T17:36:42.195Z,22.10
2018-06-12T17:39:10.178Z,22.30
2018-06-12T17:41:38.539Z,22.40
2018-06-12T17:44:06.572Z,22.50
2018-06-12T17:46:34.603Z,22.50
2018-06-12T17:49:02.595Z,22.40
2018-06-12T17:51:30.590Z,22.30
2018-06-12T17:53:58.578Z,22.10
2018-06-12T17:56:26.591Z,22.00
2018-06-12T17:58:54.602Z,21.90
2018-06-12T18:01:22.618Z,21.90
2018-06-12T18:03:50.603Z,21.80
2018-06-12T18:06:18.586Z,21.80
2018-06-12T18:08:46.582Z,21.80
2018-06-12T18:11:14.679Z,21.80
2018-06-12T18:13:43.102Z,21.70
2018-06-12T18:16:11.066Z,21.60
2018-06-12T18:18:39.170Z,21.40
2018-06-12T18:21:07.393Z,21.30
2018-06-12T18:23:35.377Z,21.20
2018-06-12T18:26:03.407Z,21.10
2018-06-12T18:28:31.407Z,20.90
2018-06-12T18:30:59.379Z,20.80
2018-06-12T18:33:27.374Z,20.80
2018-06-12T18:35:55.382Z,20.70
2018-06-12T18:38:23.377Z,20.70
2018-06-12T18:40:51.360Z,20.60
2018-06-12T18:43:19.411Z,20.50
2018-06-12T18:45:47.390Z,20.50
2018-06-12T18:48:15.378Z,20.50
2018-06-12T18:50:43.372Z,20.40
2018-06-12T18:53:11.459Z,20.30
2018-06-12T18:55:39.468Z,20.30
2018-06-12T18:58:07.478Z,20.30
2018-06-12T19:00:35.567Z,20.30
2018-06-12T19:03:03.549Z,20.20
2018-06-12T19:05:31.559Z,20.20
2018-06-12T19:07:59.951Z,20.10
2018-06-12T19:10:28.003Z,20.10
2018-06-12T19:12:55.986Z,20.10
2018-06-12T19:15:23.959Z,20.00
2018-06-12T19:17:52.026Z,20.00
2018-06-12T19:20:19.999Z,19.90
2018-06-12T19:22:48.043Z,19.80
2018-06-12T19:25:16.038Z,19.80
2018-06-12T19:27:44.051Z,19.70
2018-06-12T19:30:12.039Z,19.70
2018-06-12T19:32:40.024Z,19.70
2018-06-12T19:35:08.063Z,19.70
2018-06-12T19:37:36.058Z,19.70
2018-06-12T19:40:04.066Z,19.60
2018-06-12T19:42:32.086Z,19.60
2018-06-12T19:45:00.121Z,19.60
2018-06-12T19:47:28.158Z,19.50
2018-06-12T19:49:56.135Z,19.40
2018-06-12T19:52:24.113Z,19.40
2018-06-12T19:54:52.166Z,19.30
2018-06-12T19:57:20.276Z,19.40
2018-06-12T19:59:48.347Z,19.40
2018-06-12T20:02:16.359Z,19.40
2018-06-12T20:04:44.362Z,19.40
2018-06-12T20:07:12.401Z,19.40
2018-06-12T20:09:40.401Z,19.40
2018-06-12T20:12:08.414Z,19.40
2018-06-12T20:14:36.386Z,19.30
2018-06-12T20:17:04.393Z,19.30
2018-06-12T20:19:32.447Z,19.10
2018-06-12T20:22:00.417Z,19.20
2018-06-12T20:24:28.425Z,19.20
2018-06-12T20:26:56.430Z,19.20
2018-06-12T20:29:24.420Z,19.20
2018-06-12T20:31:52.413Z,19.10
2018-06-12T20:34:20.390Z,19.10
2018-06-12T20:36:48.423Z,19.00
2018-06-12T20:39:16.422Z,19.00
2018-06-12T20:41:44.405Z,19.00
2018-06-12T20:44:12.543Z,19.10
2018-06-12T20:46:40.567Z,19.10
2018-06-12T20:49:08.566Z,19.20
2018-06-12T20:51:36.598Z,19.20
2018-06-12T20:54:04.598Z,19.20
2018-06-12T20:56:32.583Z,19.20
2018-06-12T20:59:00.595Z,19.20
2018-06-12T21:01:28.647Z,19.10
2018-06-12T21:03:56.731Z,19.10
2018-06-12T21:06:24.831Z,19.00
2018-06-12T21:08:52.841Z,19.00
2018-06-12T21:11:20.822Z,19.00
2018-06-12T21:13:48.844Z,19.10
2018-06-12T21:16:16.834Z,19.10
2018-06-12T21:18:44.850Z,19.10
2018-06-12T21:21:12.887Z,19.10
2018-06-12T21:23:40.878Z,19.00
2018-06-12T21:26:08.850Z,19.00
2018-06-12T21:28:36.867Z,19.00
2018-06-12T21:31:04.866Z,18.90
2018-06-12T21:33:32.856Z,18.90
2018-06-12T21:36:00.834Z,18.90
2018-06-12T21:38:28.875Z,18.90
2018-06-12T21:40:56.898Z,18.90
2018-06-12T21:43:24.906Z,18.90
2018-06-12T21:45:52.895Z,19.00
2018-06-12T21:48:20.882Z,19.00
2018-06-12T21:50:48.862Z,19.00
2018-06-12T21:53:16.846Z,18.90
2018-06-12T21:55:44.838Z,18.80
2018-06-12T21:58:12.921Z,18.70
2018-06-12T22:00:40.927Z,18.80
2018-06-12T22:05:42.374Z,18.70
2018-06-12T22:08:10.431Z,18.70
2018-06-12T22:10:38.529Z,18.70
2018-06-12T22:13:06.563Z,18.70
2018-06-12T22:15:34.572Z,18.60
2018-06-12T22:18:02.572Z,18.60
2018-06-12T22:20:30.559Z,18.60
2018-06-12T22:22:58.641Z,18.70
2018-06-12T22:25:26.709Z,18.60
2018-06-12T22:27:54.782Z,18.50
2018-06-12T22:30:22.807Z,18.50
2018-06-12T22:32:50.810Z,18.50
2018-06-12T22:35:18.926Z,18.60
2018-06-12T22:37:47.103Z,18.50
2018-06-12T22:40:15.061Z,18.50
2018-06-12T22:42:43.051Z,18.50
2018-06-12T22:45:11.215Z,18.50
2018-06-12T22:47:39.222Z,18.50
2018-06-12T22:50:07.240Z,18.40
2018-06-12T22:52:35.315Z,18.50
2018-06-12T22:55:03.348Z,18.40
2018-06-12T22:57:31.351Z,18.40
2018-06-12T22:59:59.354Z,18.40
2018-06-12T23:02:27.379Z,18.50
2018-06-12T23:04:55.471Z,18.50
2018-06-12T23:07:23.458Z,18.50
2018-06-12T23:09:51.511Z,18.50
2018-06-12T23:12:19.587Z,18.50
2018-06-12T23:14:47.627Z,18.50
2018-06-12T23:17:15.640Z,18.50
2018-06-12T23:19:55.366Z,18.60
2018-06-12T23:22:23.473Z,18.50
2018-06-12T23:24:51.495Z,18.50
2018-06-12T23:27:19.499Z,18.50
2018-06-12T23:29:47.507Z,18.50
2018-06-12T23:32:15.515Z,18.60
2018-06-12T23:34:43.591Z,18.50
2018-06-12T23:37:11.618Z,18.50
2018-06-12T23:39:39.702Z,18.60
2018-06-12T23:42:07.839Z,18.70
2018-06-12T23:44:35.949Z,18.70
2018-06-12T23:47:03.955Z,18.50
2018-06-12T23:49:31.947Z,18.50
2018-06-12T23:51:59.958Z,18.50
2018-06-12T23:54:28.046Z,18.50
2018-06-12T23:56:56.127Z,18.50
2018-06-12T23:59:24.153Z,18.40
